Aeroporto :
LOGIN :

Iscrizione | Disclaimer

   EN    FR    IT 

 










Sommario :    VFR   VFR Marginale   IFR   IFR Intensivo   IFR Molto Intensivo
Visibilità : 
Base nubi : 
>= 8 km
>= 3000ft
5 / 8 km
1000 / 3000 ft
1500m / 5 km
500 / 1000 ft
800 / 1500m
200 / 500 ft
< 800m
< 200 ft
Simboli :   Temporali  Nebbia  Neve Forte  Precipitazioni Forti  Vento > 20 kt
SIGMETs :   Varie  Temporali  Ghiacco  Turbolenza  Onda orograficha  Ceneri Vulcaniche






- Altitudine del aeroporto : 117 ft
- Codice IATA : NWI


EGSH - Norwich

ULTIMO METAR :
  • 162150Z 05006KT 4600 HZ SCT005 19/17 Q1011 TEMPO 5000 BKN006

METARs OBSOLETI :
  • 162120Z 03004KT 4600 HZ FEW008 19/17 Q1011 TEMPO 5000
  • 162050Z 05005KT 5000 HZ FEW047 19/17 Q1010 NOSIG
  • 162020Z 06005KT 5000 FEW009 SCT049 19/18 Q1010 TEMPO SHRA
  • 161950Z 08007KT 5000 -RA FEW045 19/17 Q1010 TEMPO SHRA
  • 161920Z 07007KT 5000 -RA FEW045 19/17 Q1010 TEMPO SHRA

TAF TAF EGSH
Valido dal 16 a 21 ore il 17 a 06 ore UTC


161957Z 1621/1706 06008KT 9999 FEW030
TEMPO 1621/1706 6000 SHRA BKN010
PROB30
TEMPO 1621/1706 3000 +SHRAGS BKN006
ATIS : +44 1603 420 640



MetMap, La meteo Aeronautica in un colpo d'occhio ! - Copyright ORBIFLY Dicembre 2007 - Disclaimer

ORBIFLY MET'MAP TEAM :

Programmazione e sviluppo : Alexandra Zaïnal
Concezione : Baudouin d'Aumeries
Supporto tecnico e logistico : Manuel Goepfert
Aiuto : Marc-Olivier Méhu
Aiuto per la traduzione : Arnaldo La Scala




FONTI E CREDITI :

   NOAA